createdAt,value
2023-04-20T00:00:27.534Z,4.97
2023-04-20T00:02:54.430Z,4.60
2023-04-20T00:05:21.461Z,4.15
2023-04-20T00:07:48.554Z,4.95
2023-04-20T00:10:15.631Z,3.67
2023-04-20T00:12:42.751Z,4.75
2023-04-20T00:15:09.726Z,4.70
2023-04-20T00:17:38.527Z,4.65
2023-04-20T00:20:07.848Z,3.53
2023-04-20T00:22:35.953Z,3.28
2023-04-20T00:25:03.133Z,5.18
2023-04-20T00:27:29.676Z,5.80
2023-04-20T00:29:56.541Z,3.42
2023-04-20T00:32:23.560Z,4.00
2023-04-20T00:34:50.305Z,5.40
2023-04-20T00:37:16.970Z,4.75
2023-04-20T00:39:43.607Z,3.72
2023-04-20T00:42:42.304Z,5.68
2023-04-20T00:45:09.766Z,3.53
2023-04-20T00:47:37.234Z,2.60
2023-04-20T00:50:04.515Z,8.32
2023-04-20T00:52:32.223Z,4.93
2023-04-20T00:54:58.964Z,5.88
2023-04-20T00:57:27.475Z,7.15
2023-04-20T00:59:54.145Z,5.38
2023-04-20T01:02:22.782Z,3.08
2023-04-20T01:04:49.813Z,3.05
2023-04-20T01:07:16.416Z,5.45
2023-04-20T01:09:43.148Z,7.25
2023-04-20T01:12:11.236Z,4.72
2023-04-20T01:14:37.926Z,4.35
2023-04-20T01:17:05.829Z,4.32
2023-04-20T01:19:33.553Z,4.13
2023-04-20T01:22:02.224Z,6.10
2023-04-20T01:24:29.044Z,6.20
2023-04-20T01:26:56.349Z,5.57
2023-04-20T01:29:23.031Z,3.58
2023-04-20T01:31:49.768Z,3.83
2023-04-20T01:34:17.576Z,5.00
2023-04-20T01:36:45.628Z,3.80
2023-04-20T01:39:12.698Z,2.20
2023-04-20T01:41:39.838Z,5.75
2023-04-20T01:44:06.502Z,4.22
2023-04-20T01:46:33.229Z,7.38
2023-04-20T01:48:59.831Z,5.10
2023-04-20T01:51:26.451Z,4.68
2023-04-20T01:53:53.914Z,5.10
2023-04-20T01:56:20.610Z,5.80
2023-04-20T01:58:47.289Z,3.47
2023-04-20T02:01:14.007Z,4.07
2023-04-20T02:03:41.065Z,4.97
2023-04-20T02:06:08.069Z,4.10
2023-04-20T02:08:34.966Z,3.25
2023-04-20T02:11:01.801Z,5.53
2023-04-20T02:13:28.398Z,5.10
2023-04-20T02:15:55.493Z,6.85
2023-04-20T02:18:22.839Z,3.88
2023-04-20T02:20:49.590Z,4.10
2023-04-20T02:23:16.404Z,5.50
2023-04-20T02:25:43.032Z,3.92
2023-04-20T02:28:11.650Z,3.47
2023-04-20T02:30:38.628Z,4.07
2023-04-20T02:33:05.269Z,3.50
2023-04-20T02:35:32.118Z,6.88
2023-04-20T02:37:58.799Z,6.72
2023-04-20T02:40:25.571Z,4.43
2023-04-20T02:42:53.851Z,7.45
2023-04-20T02:45:20.514Z,8.48
2023-04-20T02:47:47.335Z,3.70
2023-04-20T02:50:15.089Z,5.95
2023-04-20T02:53:00.661Z,4.78
2023-04-20T02:55:28.493Z,4.40
2023-04-20T02:57:58.876Z,3.30
2023-04-20T03:00:48.190Z,3.05
2023-04-20T03:03:15.373Z,6.15
2023-04-20T03:05:42.425Z,5.45
2023-04-20T03:08:09.574Z,2.67
2023-04-20T03:10:36.302Z,6.45
2023-04-20T03:13:11.620Z,5.63
2023-04-20T03:15:50.760Z,3.97
2023-04-20T03:19:00.746Z,5.28
2023-04-20T03:21:28.584Z,5.47
2023-04-20T03:23:55.457Z,6.20
2023-04-20T03:26:26.733Z,6.03
2023-04-20T03:31:42.160Z,7.07
2023-04-20T03:34:12.382Z,6.65
2023-04-20T03:36:40.099Z,5.60
2023-04-20T03:39:07.026Z,5.00
2023-04-20T03:41:33.718Z,4.88
2023-04-20T03:44:00.296Z,4.25
2023-04-20T03:46:27.666Z,6.90
2023-04-20T03:48:54.382Z,8.32
2023-04-20T03:51:21.185Z,7.45
2023-04-20T03:53:47.933Z,5.53
2023-04-20T03:56:14.636Z,5.22
2023-04-20T03:58:42.072Z,8.45
2023-04-20T04:01:15.775Z,7.07
2023-04-20T04:03:46.968Z,7.80
2023-04-20T04:06:41.203Z,10.30
2023-04-20T04:09:08.905Z,5.25
2023-04-20T04:11:36.113Z,4.80
2023-04-20T04:14:05.172Z,8.52
2023-04-20T04:16:32.831Z,5.25
2023-04-20T04:18:59.565Z,5.07
2023-04-20T04:21:27.638Z,4.63
2023-04-20T04:24:00.003Z,4.38
2023-04-20T04:26:36.245Z,4.30
2023-04-20T04:29:04.826Z,5.40
2023-04-20T04:31:32.970Z,5.35
2023-04-20T04:34:07.763Z,6.05
2023-04-20T04:36:40.540Z,5.32
2023-04-20T04:39:10.962Z,4.45
2023-04-20T04:41:41.034Z,5.50
2023-04-20T04:44:22.217Z,6.82
2023-04-20T04:46:49.046Z,4.35
2023-04-20T04:49:16.224Z,4.18
2023-04-20T04:51:43.051Z,4.00
2023-04-20T04:54:11.355Z,9.25
2023-04-20T04:56:38.003Z,3.75
2023-04-20T04:59:04.798Z,6.25
2023-04-20T05:01:31.408Z,4.60
2023-04-20T05:03:58.258Z,5.13
2023-04-20T05:06:25.453Z,5.80
2023-04-20T05:08:52.116Z,6.32
2023-04-20T05:11:19.110Z,4.57
2023-04-20T05:13:45.834Z,9.32
2023-04-20T05:16:12.522Z,4.75
2023-04-20T05:18:39.179Z,4.40
2023-04-20T05:21:05.819Z,4.78
2023-04-20T05:23:32.855Z,6.47
2023-04-20T05:25:59.506Z,7.20
2023-04-20T05:28:26.765Z,8.63
2023-04-20T05:30:55.278Z,7.35
2023-04-20T05:33:22.512Z,10.27
2023-04-20T05:35:52.029Z,5.55
2023-04-20T05:38:18.610Z,8.80
2023-04-20T05:40:45.102Z,6.45
2023-04-20T05:43:11.712Z,10.32
2023-04-20T05:45:39.443Z,8.75
2023-04-20T05:48:06.292Z,6.03
2023-04-20T05:50:33.053Z,9.52
2023-04-20T05:52:59.713Z,9.38
2023-04-20T05:55:26.918Z,8.50
2023-04-20T05:57:53.587Z,6.28
2023-04-20T06:00:21.179Z,4.80
2023-04-20T06:02:48.802Z,7.18
2023-04-20T06:05:15.711Z,6.28
2023-04-20T06:07:42.383Z,5.65
2023-04-20T06:10:09.662Z,9.63
2023-04-20T06:12:36.407Z,7.90
2023-04-20T06:15:04.793Z,4.97
2023-04-20T06:17:31.563Z,7.95
2023-04-20T06:19:58.097Z,5.78
2023-04-20T06:22:24.676Z,7.95
2023-04-20T06:24:51.281Z,5.88
2023-04-20T06:27:17.828Z,8.70
2023-04-20T06:29:44.476Z,9.23
2023-04-20T06:32:11.423Z,6.93
2023-04-20T06:34:38.267Z,6.50
2023-04-20T06:37:07.498Z,9.05
2023-04-20T06:39:35.350Z,7.13
2023-04-20T06:42:02.696Z,8.00
2023-04-20T06:44:29.326Z,5.60
2023-04-20T06:46:56.079Z,10.40
2023-04-20T06:49:22.675Z,5.85
2023-04-20T06:51:49.286Z,8.75
2023-04-20T06:54:16.791Z,8.25
2023-04-20T06:56:43.531Z,6.15
2023-04-20T06:59:10.161Z,5.63
2023-04-20T07:01:36.738Z,4.35
2023-04-20T07:04:03.586Z,10.32
2023-04-20T07:06:30.580Z,9.35
2023-04-20T07:08:57.247Z,4.10
2023-04-20T07:11:24.658Z,6.18
2023-04-20T07:13:51.313Z,5.82
2023-04-20T07:16:17.864Z,4.45
2023-04-20T07:18:44.524Z,4.03
2023-04-20T07:21:11.115Z,11.65
2023-04-20T07:23:37.635Z,6.38
2023-04-20T07:26:05.433Z,5.95
2023-04-20T07:28:32.770Z,6.03
2023-04-20T07:30:59.509Z,3.97
2023-04-20T07:33:26.321Z,4.68
2023-04-20T07:35:52.940Z,7.22
2023-04-20T07:38:19.566Z,5.05
2023-04-20T07:40:47.248Z,4.30
2023-04-20T07:43:13.905Z,4.63
2023-04-20T07:45:41.775Z,5.57
2023-04-20T07:48:12.370Z,3.20
2023-04-20T07:50:39.252Z,5.00
2023-04-20T07:53:07.158Z,5.38
2023-04-20T07:55:33.803Z,5.57
2023-04-20T07:58:00.858Z,5.40
2023-04-20T08:00:27.539Z,6.15
2023-04-20T08:02:54.256Z,4.55
2023-04-20T08:05:21.374Z,3.47
2023-04-20T08:07:48.464Z,5.07
2023-04-20T08:10:15.214Z,4.97
2023-04-20T08:12:41.853Z,7.85
2023-04-20T08:15:09.434Z,6.75
2023-04-20T08:17:36.209Z,6.53
2023-04-20T08:20:04.713Z,4.45
2023-04-20T08:22:33.577Z,5.07
2023-04-20T08:25:00.220Z,5.80
2023-04-20T08:27:29.620Z,5.03
2023-04-20T08:29:56.632Z,5.75
2023-04-20T08:32:26.484Z,4.55
2023-04-20T08:34:54.022Z,4.53
2023-04-20T08:37:21.274Z,5.18
2023-04-20T08:39:47.910Z,4.65
2023-04-20T08:42:16.786Z,3.70
2023-04-20T08:44:43.389Z,3.00
2023-04-20T08:47:11.931Z,4.07
2023-04-20T08:49:42.122Z,4.50
2023-04-20T08:52:11.032Z,6.32
2023-04-20T08:54:45.795Z,4.00
2023-04-20T08:57:12.697Z,6.18
2023-04-20T08:59:39.391Z,5.35
2023-04-20T09:02:14.002Z,4.57
2023-04-20T09:04:41.084Z,4.43
2023-04-20T09:07:18.422Z,5.20
2023-04-20T09:09:56.248Z,3.67
2023-04-20T09:12:24.645Z,7.55
2023-04-20T09:14:52.058Z,4.47
2023-04-20T09:17:31.697Z,6.38
2023-04-20T09:19:58.355Z,8.60
2023-04-20T09:22:33.615Z,4.32
2023-04-20T09:25:01.189Z,6.80
2023-04-20T09:27:27.909Z,11.40
2023-04-20T09:30:03.674Z,5.00
2023-04-20T09:32:30.336Z,4.32
2023-04-20T09:34:57.044Z,5.10
2023-04-20T09:37:24.083Z,8.05
2023-04-20T09:39:51.079Z,5.35
2023-04-20T09:42:17.936Z,5.47
2023-04-20T09:44:44.724Z,7.60
2023-04-20T09:47:21.436Z,7.43
2023-04-20T09:49:48.036Z,6.07
2023-04-20T09:52:18.722Z,5.13
2023-04-20T09:54:46.015Z,4.72
2023-04-20T09:57:13.969Z,4.05
2023-04-20T09:59:43.611Z,4.68
2023-04-20T10:02:14.316Z,6.10
2023-04-20T10:04:57.893Z,6.80
2023-04-20T10:07:26.451Z,4.20
2023-04-20T10:10:10.052Z,3.78
2023-04-20T10:12:57.257Z,4.40
2023-04-20T10:15:27.197Z,4.40
2023-04-20T10:17:54.091Z,6.38
2023-04-20T10:20:23.895Z,5.22
2023-04-20T10:22:54.933Z,5.40
2023-04-20T10:25:26.905Z,4.75
2023-04-20T10:27:59.047Z,4.35
2023-04-20T10:30:26.893Z,5.45
2023-04-20T10:33:04.429Z,5.53
2023-04-20T10:35:51.611Z,4.32
2023-04-20T10:38:34.892Z,6.07
2023-04-20T10:41:09.185Z,5.38
2023-04-20T10:43:36.028Z,4.35
2023-04-20T10:46:02.836Z,6.13
2023-04-20T10:48:29.521Z,5.47
2023-04-20T10:50:56.346Z,4.07
2023-04-20T10:53:23.964Z,4.85
2023-04-20T10:56:00.583Z,5.47
2023-04-20T10:58:27.475Z,7.47
2023-04-20T11:01:01.644Z,5.05
2023-04-20T11:03:30.418Z,4.25
2023-04-20T11:06:01.211Z,5.15
2023-04-20T11:08:41.025Z,5.50
2023-04-20T11:11:21.648Z,4.45
2023-04-20T11:13:48.609Z,4.85
2023-04-20T11:16:17.003Z,5.88
2023-04-20T11:18:54.288Z,5.32
2023-04-20T11:21:22.384Z,5.57
2023-04-20T11:23:50.010Z,6.38
2023-04-20T11:26:17.072Z,6.05
2023-04-20T11:28:56.224Z,5.72
2023-04-20T11:31:23.313Z,10.63
2023-04-20T11:33:51.311Z,5.22
2023-04-20T11:36:19.496Z,7.68
2023-04-20T11:38:46.199Z,8.30
2023-04-20T11:41:12.882Z,6.68
2023-04-20T11:43:39.490Z,5.53
2023-04-20T11:46:14.656Z,4.85
2023-04-20T11:48:41.538Z,5.38
2023-04-20T11:51:08.367Z,6.07
2023-04-20T11:53:34.913Z,5.53
2023-04-20T11:56:01.571Z,5.57
2023-04-20T11:58:28.231Z,6.45
2023-04-20T12:00:54.954Z,5.35
2023-04-20T12:03:22.365Z,7.65
2023-04-20T12:05:49.312Z,5.68
2023-04-20T12:08:17.495Z,5.82
2023-04-20T12:10:44.702Z,6.55
2023-04-20T12:13:11.421Z,7.55
2023-04-20T12:15:37.956Z,7.68
2023-04-20T12:18:04.713Z,6.80
2023-04-20T12:20:32.519Z,6.03
2023-04-20T12:22:59.273Z,5.57
2023-04-20T12:25:25.874Z,6.68
2023-04-20T12:27:52.548Z,5.60
2023-04-20T12:30:19.337Z,5.57
2023-04-20T12:32:46.149Z,5.85
2023-04-20T12:35:12.793Z,7.15
2023-04-20T12:37:39.453Z,6.75
2023-04-20T12:40:07.209Z,11.85
2023-04-20T12:42:33.906Z,9.55
2023-04-20T12:45:00.595Z,6.38
2023-04-20T12:47:27.268Z,6.93
2023-04-20T12:49:55.021Z,7.10
2023-04-20T12:52:21.888Z,6.30
2023-04-20T12:54:48.538Z,6.90
2023-04-20T12:57:15.385Z,5.32
2023-04-20T12:59:42.872Z,6.28
2023-04-20T13:02:10.969Z,4.90
2023-04-20T13:04:37.739Z,6.25
2023-04-20T13:07:04.319Z,5.75
2023-04-20T13:09:30.947Z,5.90
2023-04-20T13:11:57.982Z,6.32
2023-04-20T13:14:25.758Z,6.82
2023-04-20T13:16:55.172Z,11.27
2023-04-20T13:19:22.331Z,5.90
2023-04-20T13:21:48.964Z,5.07
2023-04-20T13:24:15.757Z,4.88
2023-04-20T13:26:42.684Z,6.35
2023-04-20T13:29:09.299Z,4.70
2023-04-20T13:31:36.917Z,6.00
2023-04-20T13:34:03.715Z,6.10
2023-04-20T13:36:31.472Z,5.38
2023-04-20T13:38:58.161Z,5.90
2023-04-20T13:41:24.866Z,7.60
2023-04-20T13:43:51.526Z,6.18
2023-04-20T13:46:19.899Z,6.53
2023-04-20T13:48:46.626Z,6.97
2023-04-20T13:51:13.171Z,5.45
2023-04-20T13:53:39.800Z,5.65
2023-04-20T13:56:06.526Z,6.13
2023-04-20T13:58:33.148Z,7.10
2023-04-20T14:00:59.742Z,5.20
2023-04-20T14:03:26.749Z,5.45
2023-04-20T14:05:53.594Z,5.13
2023-04-20T14:08:20.688Z,4.20
2023-04-20T14:10:47.316Z,6.40
2023-04-20T14:13:14.050Z,5.68
2023-04-20T14:15:41.481Z,4.70
2023-04-20T14:18:08.258Z,4.72
2023-04-20T14:20:35.081Z,5.10
2023-04-20T14:23:01.747Z,6.72
2023-04-20T14:25:28.461Z,7.50
2023-04-20T14:27:55.011Z,4.60
2023-04-20T14:30:21.983Z,4.90
2023-04-20T14:32:59.724Z,4.82
2023-04-20T14:35:28.313Z,4.45
2023-04-20T14:37:55.028Z,4.43
2023-04-20T14:40:22.079Z,4.53
2023-04-20T14:42:48.732Z,5.63
2023-04-20T14:45:15.505Z,5.35
2023-04-20T14:47:42.188Z,5.40
2023-04-20T14:50:09.799Z,5.30
2023-04-20T14:52:37.380Z,5.95
2023-04-20T14:55:04.394Z,5.75
2023-04-20T14:57:31.978Z,6.03
2023-04-20T14:59:58.583Z,6.38
2023-04-20T15:02:25.525Z,9.15
2023-04-20T15:04:52.414Z,8.65
2023-04-20T15:07:19.247Z,8.65
2023-04-20T15:09:46.342Z,9.40
2023-04-20T15:12:13.059Z,6.53
2023-04-20T15:14:39.720Z,5.75
2023-04-20T15:17:06.365Z,5.97
2023-04-20T15:19:32.956Z,6.20
2023-04-20T15:21:59.618Z,7.07
2023-04-20T15:24:26.295Z,8.43
2023-04-20T15:26:53.019Z,7.10
2023-04-20T15:29:19.672Z,7.05
2023-04-20T15:31:46.821Z,7.65
2023-04-20T15:34:15.426Z,7.38
2023-04-20T15:36:43.520Z,7.72
2023-04-20T15:39:10.172Z,7.85
2023-04-20T15:41:36.767Z,7.53
2023-04-20T15:44:03.416Z,6.65
2023-04-20T15:46:30.106Z,6.28
2023-04-20T15:48:56.857Z,8.55
2023-04-20T15:51:24.826Z,7.40
2023-04-20T15:53:51.730Z,5.95
2023-04-20T15:56:18.689Z,6.43
2023-04-20T15:58:46.239Z,5.35
2023-04-20T16:01:12.924Z,5.63
2023-04-20T16:03:39.888Z,6.15
2023-04-20T16:06:07.152Z,6.00
2023-04-20T16:08:33.851Z,6.28
2023-04-20T16:11:00.613Z,5.78
2023-04-20T16:13:27.346Z,5.88
2023-04-20T16:15:55.616Z,5.85
2023-04-20T16:18:22.291Z,5.00
2023-04-20T16:20:48.942Z,6.38
2023-04-20T16:23:15.849Z,5.20
2023-04-20T16:25:42.455Z,5.50
2023-04-20T16:28:09.110Z,6.63
2023-04-20T16:30:36.980Z,5.40
2023-04-20T16:33:03.957Z,4.95
2023-04-20T16:35:32.225Z,5.30
2023-04-20T16:37:58.879Z,6.15
2023-04-20T16:40:26.309Z,5.38
2023-04-20T16:42:53.006Z,6.43
2023-04-20T16:45:19.617Z,6.13
2023-04-20T16:47:46.576Z,6.82
2023-04-20T16:50:19.140Z,5.90
2023-04-20T16:52:49.775Z,9.90
2023-04-20T16:55:16.398Z,5.57
2023-04-20T16:57:43.053Z,5.43
2023-04-20T17:00:10.868Z,5.80
2023-04-20T17:02:37.892Z,5.47
2023-04-20T17:05:07.161Z,5.43
2023-04-20T17:07:33.787Z,7.28
2023-04-20T17:10:00.480Z,6.10
2023-04-20T17:12:27.227Z,6.82
2023-04-20T17:14:55.141Z,6.15
2023-04-20T17:17:21.758Z,7.05
2023-04-20T17:19:48.308Z,7.80
2023-04-20T17:22:14.937Z,6.10
2023-04-20T17:24:41.522Z,6.65
2023-04-20T17:27:08.231Z,6.60
2023-04-20T17:29:38.258Z,5.47
2023-04-20T17:32:05.903Z,7.47
2023-04-20T17:34:32.989Z,8.27
2023-04-20T17:36:59.623Z,7.13
2023-04-20T17:39:26.612Z,6.93
2023-04-20T17:41:53.296Z,7.47
2023-04-20T17:44:20.292Z,7.72
2023-04-20T17:46:47.168Z,8.45
2023-04-20T17:49:13.720Z,8.20
2023-04-20T17:51:40.284Z,7.55
2023-04-20T17:54:07.686Z,8.85
2023-04-20T17:56:34.244Z,8.82
2023-04-20T17:59:01.052Z,7.45
2023-04-20T18:01:28.094Z,8.15
2023-04-20T18:03:54.953Z,7.32
2023-04-20T18:06:21.736Z,9.05
2023-04-20T18:08:48.294Z,7.72
2023-04-20T18:11:14.839Z,8.43
2023-04-20T18:13:41.460Z,8.02
2023-04-20T18:16:08.398Z,8.90
2023-04-20T18:18:35.190Z,8.10
2023-04-20T18:21:01.807Z,8.50
2023-04-20T18:23:29.955Z,8.43
2023-04-20T18:25:56.776Z,7.45
2023-04-20T18:28:23.507Z,8.60
2023-04-20T18:30:50.133Z,7.80
2023-04-20T18:33:16.702Z,7.75
2023-04-20T18:35:43.826Z,11.15
2023-04-20T18:38:10.348Z,7.68
2023-04-20T18:40:36.959Z,8.88
2023-04-20T18:43:03.602Z,8.27
2023-04-20T18:45:30.881Z,7.53
2023-04-20T18:47:58.218Z,7.38
2023-04-20T18:50:24.915Z,7.60
2023-04-20T18:52:51.493Z,7.68
2023-04-20T18:55:18.149Z,8.07
2023-04-20T18:57:44.685Z,6.85
2023-04-20T19:00:11.748Z,6.57
2023-04-20T19:02:38.465Z,6.28
2023-04-20T19:05:05.545Z,6.03
2023-04-20T19:07:32.222Z,5.35
2023-04-20T19:09:58.924Z,6.03
2023-04-20T19:12:25.463Z,5.80
2023-04-20T19:14:52.145Z,6.43
2023-04-20T19:17:18.653Z,6.07
2023-04-20T19:19:45.943Z,5.25
2023-04-20T19:22:12.459Z,4.50
2023-04-20T19:24:39.110Z,5.07
2023-04-20T19:27:05.822Z,4.72
2023-04-20T19:29:35.288Z,4.78
2023-04-20T19:32:02.044Z,5.05
2023-04-20T19:34:28.763Z,4.97
2023-04-20T19:36:55.545Z,5.50
2023-04-20T19:39:22.219Z,5.68
2023-04-20T19:41:48.918Z,6.57
2023-04-20T19:44:15.843Z,6.53
2023-04-20T19:46:43.555Z,7.43
2023-04-20T19:49:10.275Z,5.95
2023-04-20T19:51:36.906Z,6.38
2023-04-20T19:54:04.825Z,6.30
2023-04-20T19:56:32.284Z,7.10
2023-04-20T19:58:58.987Z,6.72
2023-04-20T20:01:25.679Z,9.05
2023-04-20T20:03:52.606Z,7.63
2023-04-20T20:06:19.596Z,8.25
2023-04-20T20:08:46.537Z,10.43
2023-04-20T20:11:13.135Z,7.97
2023-04-20T20:13:40.010Z,10.02
2023-04-20T20:16:06.650Z,8.77
2023-04-20T20:18:33.373Z,8.63
2023-04-20T20:20:59.915Z,9.02
2023-04-20T20:23:26.708Z,8.98
2023-04-20T20:25:53.330Z,10.68
2023-04-20T20:28:21.127Z,8.93
2023-04-20T20:30:47.760Z,8.85
2023-04-20T20:33:14.570Z,9.32
2023-04-20T20:35:41.593Z,8.55
2023-04-20T20:38:11.038Z,9.05
2023-04-20T20:40:39.702Z,10.20
2023-04-20T20:43:06.696Z,10.43
2023-04-20T20:45:33.368Z,9.13
2023-04-20T20:48:00.505Z,8.73
2023-04-20T20:50:27.916Z,11.35
2023-04-20T20:52:54.721Z,10.50
2023-04-20T20:55:21.555Z,10.65
2023-04-20T20:57:48.153Z,11.35
2023-04-20T21:00:15.174Z,9.73
2023-04-20T21:02:43.129Z,10.93
2023-04-20T21:05:10.249Z,11.35
2023-04-20T21:07:36.856Z,12.52
2023-04-20T21:10:03.646Z,11.55
2023-04-20T21:12:30.454Z,10.60
2023-04-20T21:14:57.245Z,10.55
2023-04-20T21:17:23.953Z,10.93
2023-04-20T21:20:41.364Z,10.35
2023-04-20T21:23:08.671Z,10.77
2023-04-20T21:25:36.091Z,11.85
2023-04-20T21:28:02.660Z,11.38
2023-04-20T21:30:29.449Z,11.27
2023-04-20T21:32:56.146Z,12.35
2023-04-20T21:35:22.829Z,12.65
2023-04-20T21:37:49.378Z,14.55
2023-04-20T21:40:16.035Z,12.88
2023-04-20T21:42:42.648Z,14.05
2023-04-20T21:45:09.880Z,13.85
2023-04-20T21:47:36.535Z,14.63
2023-04-20T21:50:03.362Z,15.27
2023-04-20T21:52:31.005Z,15.20
2023-04-20T21:54:57.665Z,14.35
2023-04-20T21:57:24.278Z,15.15
2023-04-20T21:59:50.890Z,14.50
2023-04-20T22:02:17.619Z,18.20
2023-04-20T22:04:45.696Z,20.63
2023-04-20T22:07:12.442Z,16.42
2023-04-20T22:09:39.048Z,16.73
2023-04-20T22:12:06.556Z,18.10
2023-04-20T22:14:33.755Z,16.80
2023-04-20T22:17:01.792Z,17.10
2023-04-20T22:19:29.002Z,20.95
2023-04-20T22:21:55.675Z,17.75
2023-04-20T22:24:22.347Z,19.05
2023-04-20T22:26:49.117Z,18.38
2023-04-20T22:29:15.978Z,19.35
2023-04-20T22:31:42.760Z,20.52
2023-04-20T22:34:09.449Z,19.38
2023-04-20T22:36:36.125Z,19.25
2023-04-20T22:39:02.791Z,19.10
2023-04-20T22:41:31.020Z,21.13
2023-04-20T22:43:57.664Z,21.52
2023-04-20T22:46:25.584Z,21.63
2023-04-20T22:48:52.412Z,18.60
2023-04-20T22:51:18.977Z,21.75
2023-04-20T22:53:45.570Z,20.20
2023-04-20T22:56:12.171Z,22.27
2023-04-20T22:58:39.810Z,25.23
2023-04-20T23:01:06.451Z,26.67
2023-04-20T23:03:33.355Z,28.80
2023-04-20T23:06:00.203Z,21.58
2023-04-20T23:08:28.254Z,21.67
2023-04-20T23:10:55.194Z,25.40
2023-04-20T23:13:22.055Z,24.25
2023-04-20T23:15:51.559Z,25.65
2023-04-20T23:18:18.282Z,23.05
2023-04-20T23:20:45.008Z,26.13
2023-04-20T23:23:11.835Z,25.50
2023-04-20T23:25:38.689Z,26.95
2023-04-20T23:28:05.344Z,27.80
2023-04-20T23:30:32.012Z,28.33
2023-04-20T23:32:58.847Z,24.35
2023-04-20T23:35:25.508Z,25.25
2023-04-20T23:37:52.188Z,24.83
2023-04-20T23:40:18.851Z,26.00
2023-04-20T23:42:45.493Z,27.70
2023-04-20T23:45:12.313Z,28.13
2023-04-20T23:47:38.998Z,23.15
2023-04-20T23:50:06.652Z,25.77
2023-04-20T23:52:35.195Z,24.00
2023-04-20T23:55:01.762Z,25.60
2023-04-20T23:57:28.452Z,25.08
2023-04-20T23:59:55.604Z,25.27
